Time;durP1;ratioP1;P1;durP2;ratioP2;P2;SDS_P1;SDS_P2;PMS_P1;PMS_P2;Temp;Humidity;BMP_temperature;BMP_pressure;BME280_temperature;BME280_humidity;BME280_pressure;Samples;Min_cycle;Max_cycle;Signal;HPM_P1;HPM_P2
2022/09/13 00:02:15;;;;;;;11.00;5.63;;;;;;;;;;4988399;28;20581;-76
2022/09/13 00:04:42;;;;;;;10.87;5.83;;;;;;;;;;4986471;28;20210;-76
2022/09/13 00:07:10;;;;;;;10.10;5.23;;;;;;;;;;4987812;28;20229;-77
2022/09/13 00:09:37;;;;;;;12.60;5.30;;;;;;;;;;4985387;28;20201;-76
2022/09/13 00:12:04;;;;;;;10.33;5.83;;;;;;;;;;4986783;28;20212;-76
2022/09/13 00:14:31;;;;;;;13.07;6.30;;;;;;;;;;4983791;28;20201;-76
2022/09/13 00:17:00;;;;;;;10.60;6.03;;;;;;;;;;4983688;28;20240;-76
2022/09/13 00:19:27;;;;;;;14.73;6.60;;;;;;;;;;4984243;28;20210;-76
2022/09/13 00:21:54;;;;;;;15.00;6.40;;;;;;;;;;4987140;28;20201;-76
2022/09/13 00:24:21;;;;;;;11.00;6.53;;;;;;;;;;4988186;28;20887;-76
2022/09/13 00:26:48;;;;;;;11.83;6.50;;;;;;;;;;4986199;28;20228;-76
2022/09/13 00:29:15;;;;;;;9.27;5.47;;;;;;;;;;4986676;28;20583;-76
2022/09/13 00:31:42;;;;;;;9.23;5.83;;;;;;;;;;4986762;28;20209;-76
2022/09/13 00:34:11;;;;;;;16.70;5.70;;;;;;;;;;4983269;28;20311;-76
2022/09/13 00:36:38;;;;;;;12.07;6.07;;;;;;;;;;4986535;28;20243;-76
2022/09/13 00:39:05;;;;;;;9.33;5.77;;;;;;;;;;4982282;28;21079;-76
2022/09/13 00:41:32;;;;;;;9.47;5.43;;;;;;;;;;4983308;28;20243;-76
2022/09/13 00:44:00;;;;;;;13.70;6.03;;;;;;;;;;4983023;28;20697;-76
2022/09/13 00:46:30;;;;;;;13.17;5.87;;;;;;;;;;4985514;28;20564;-76
2022/09/13 00:48:59;;;;;;;11.43;6.07;;;;;;;;;;4984474;28;20583;-76
2022/09/13 00:51:28;;;;;;;11.23;5.70;;;;;;;;;;4984486;28;20244;-76
2022/09/13 00:53:58;;;;;;;10.77;5.80;;;;;;;;;;4986761;28;20208;-76
2022/09/13 00:56:28;;;;;;;10.20;5.93;;;;;;;;;;4986060;28;20213;-76
2022/09/13 00:58:57;;;;;;;15.17;6.17;;;;;;;;;;4980970;28;20212;-76
2022/09/13 01:01:26;;;;;;;11.87;5.97;;;;;;;;;;4984441;28;20255;-76
2022/09/13 01:03:53;;;;;;;13.00;6.47;;;;;;;;;;4984025;28;20197;-76
2022/09/13 01:06:21;;;;;;;12.63;6.20;;;;;;;;;;4984462;28;20205;-76
2022/09/13 01:08:52;;;;;;;10.40;5.83;;;;;;;;;;4984637;28;20649;-76
2022/09/13 01:11:23;;;;;;;10.17;5.90;;;;;;;;;;4983392;28;20225;-76
2022/09/13 01:13:51;;;;;;;11.87;6.03;;;;;;;;;;4987421;28;20205;-76
2022/09/13 01:16:18;;;;;;;9.73;6.00;;;;;;;;;;4982407;28;20201;-77
2022/09/13 01:18:45;;;;;;;10.17;5.87;;;;;;;;;;4983582;28;20601;-76
2022/09/13 01:21:25;;;;;;;12.00;6.13;;;;;;;;;;4984628;28;20208;-76
2022/09/13 01:24:01;;;;;;;14.03;6.53;;;;;;;;;;4984419;28;20252;-76
2022/09/13 01:26:43;;;;;;;14.60;5.93;;;;;;;;;;4983309;28;20227;-76
2022/09/13 01:29:33;;;;;;;10.23;5.70;;;;;;;;;;4984625;28;20204;-76
2022/09/13 01:32:05;;;;;;;13.77;5.90;;;;;;;;;;4985781;28;20231;-75
2022/09/13 01:34:39;;;;;;;11.60;6.10;;;;;;;;;;4982928;28;20212;-76
2022/09/13 01:37:31;;;;;;;13.57;5.90;;;;;;;;;;4982365;28;20312;-76
2022/09/13 01:40:04;;;;;;;13.00;5.90;;;;;;;;;;4983949;28;20205;-76
2022/09/13 01:42:39;;;;;;;12.03;6.43;;;;;;;;;;4982061;28;20582;-76
2022/09/13 01:45:10;;;;;;;12.67;6.17;;;;;;;;;;4984488;28;20208;-76
2022/09/13 01:47:44;;;;;;;12.13;5.70;;;;;;;;;;4982095;28;20233;-76
2022/09/13 01:50:16;;;;;;;11.63;6.00;;;;;;;;;;4983610;28;20694;-76
2022/09/13 01:52:46;;;;;;;8.63;5.77;;;;;;;;;;4985086;28;20570;-76
2022/09/13 01:55:18;;;;;;;13.77;6.23;;;;;;;;;;4985168;28;20310;-76
2022/09/13 01:57:49;;;;;;;12.27;6.47;;;;;;;;;;4984144;28;20221;-76
2022/09/13 02:00:17;;;;;;;10.40;6.10;;;;;;;;;;4983243;28;20506;-76
2022/09/13 02:02:49;;;;;;;13.60;6.40;;;;;;;;;;4983272;28;20220;-76
2022/09/13 02:05:19;;;;;;;13.73;6.50;;;;;;;;;;4984697;28;20201;-76
2022/09/13 02:07:49;;;;;;;12.00;6.17;;;;;;;;;;4982288;28;20225;-76
2022/09/13 02:10:18;;;;;;;12.97;6.33;;;;;;;;;;4983532;28;20236;-76
2022/09/13 02:12:46;;;;;;;12.67;6.43;;;;;;;;;;4985398;28;20551;-76
2022/09/13 02:15:16;;;;;;;11.77;6.13;;;;;;;;;;4981865;28;20889;-76
2022/09/13 02:17:44;;;;;;;10.67;6.03;;;;;;;;;;4981541;28;20239;-76
2022/09/13 02:20:16;;;;;;;11.93;5.97;;;;;;;;;;4984571;28;20215;-76
2022/09/13 02:22:46;;;;;;;11.27;6.00;;;;;;;;;;4987660;28;20204;-76
2022/09/13 02:25:15;;;;;;;11.97;6.03;;;;;;;;;;4987549;28;20279;-76
2022/09/13 02:27:44;;;;;;;14.53;6.13;;;;;;;;;;4987697;28;20233;-76
2022/09/13 02:30:12;;;;;;;17.63;6.63;;;;;;;;;;4986580;28;20228;-76
2022/09/13 02:32:41;;;;;;;16.30;5.97;;;;;;;;;;4984874;28;20353;-76
2022/09/13 02:38:02;;;;;;;12.10;6.20;;;;;;;;;;4986509;28;20756;-76
2022/09/13 02:40:33;;;;;;;10.47;6.30;;;;;;;;;;4984980;28;20742;-76
2022/09/13 02:43:04;;;;;;;13.00;5.47;;;;;;;;;;4990836;28;20619;-76
2022/09/13 02:45:34;;;;;;;8.80;5.53;;;;;;;;;;4983133;28;20204;-76
2022/09/13 02:48:05;;;;;;;11.27;5.57;;;;;;;;;;4987630;28;20698;-76
2022/09/13 02:50:35;;;;;;;12.73;5.97;;;;;;;;;;4986752;28;20225;-76
2022/09/13 02:53:06;;;;;;;9.87;5.67;;;;;;;;;;4987760;28;20200;-76
2022/09/13 02:55:39;;;;;;;11.73;5.93;;;;;;;;;;4986896;28;20204;-76
2022/09/13 02:58:10;;;;;;;10.50;5.77;;;;;;;;;;4989074;28;20231;-76
2022/09/13 03:00:37;;;;;;;12.57;5.73;;;;;;;;;;4983877;28;20209;-76
2022/09/13 03:03:06;;;;;;;9.33;5.80;;;;;;;;;;4989054;28;20208;-76
2022/09/13 03:05:33;;;;;;;14.90;5.77;;;;;;;;;;4983498;28;20209;-76
2022/09/13 03:08:01;;;;;;;12.43;6.00;;;;;;;;;;4981584;28;20228;-76
2022/09/13 03:10:31;;;;;;;10.33;5.67;;;;;;;;;;4984322;28;20212;-76
2022/09/13 03:13:06;;;;;;;13.70;6.20;;;;;;;;;;4985326;28;20221;-76
2022/09/13 03:15:44;;;;;;;11.83;5.83;;;;;;;;;;4989159;28;20208;-76
2022/09/13 03:18:17;;;;;;;10.63;5.80;;;;;;;;;;4985198;28;20263;-76
2022/09/13 03:20:47;;;;;;;12.57;5.40;;;;;;;;;;4985466;28;20201;-76
2022/09/13 03:23:23;;;;;;;13.60;6.10;;;;;;;;;;4987331;28;20212;-76
2022/09/13 03:26:00;;;;;;;8.03;5.27;;;;;;;;;;4988492;28;20204;-76
2022/09/13 03:28:35;;;;;;;9.77;5.30;;;;;;;;;;4985504;28;20225;-76
2022/09/13 03:31:05;;;;;;;10.93;5.50;;;;;;;;;;4986445;28;20228;-76
2022/09/13 03:33:39;;;;;;;12.47;6.17;;;;;;;;;;4982706;28;20214;-76
2022/09/13 03:36:11;;;;;;;10.67;6.17;;;;;;;;;;4986939;28;20295;-76
2022/09/13 03:38:41;;;;;;;8.47;5.73;;;;;;;;;;4980093;28;20596;-76
2022/09/13 03:41:12;;;;;;;18.33;6.40;;;;;;;;;;4986528;28;20200;-76
2022/09/13 03:43:42;;;;;;;12.10;6.23;;;;;;;;;;4987542;28;20729;-75
2022/09/13 03:46:11;;;;;;;9.53;5.47;;;;;;;;;;4987018;28;20201;-75
2022/09/13 03:48:41;;;;;;;10.93;6.33;;;;;;;;;;4982059;28;20221;-75
2022/09/13 03:51:09;;;;;;;12.10;5.57;;;;;;;;;;4983450;28;20631;-75
2022/09/13 03:53:39;;;;;;;11.23;5.97;;;;;;;;;;4985155;28;20205;-75
2022/09/13 03:56:14;;;;;;;12.03;5.63;;;;;;;;;;4986757;28;20224;-76
2022/09/13 03:58:41;;;;;;;9.87;6.10;;;;;;;;;;4985708;28;20207;-76
2022/09/13 04:01:09;;;;;;;15.13;6.37;;;;;;;;;;4985408;28;20204;-76
2022/09/13 04:03:36;;;;;;;8.63;5.37;;;;;;;;;;4987295;28;20301;-76
2022/09/13 04:12:12;;;;;;;11.53;5.87;;;;;;;;;;4987970;28;20265;-76
2022/09/13 04:14:40;;;;;;;9.00;5.87;;;;;;;;;;4981374;28;20623;-76
2022/09/13 04:17:07;;;;;;;9.53;5.53;;;;;;;;;;4983760;28;20245;-76
2022/09/13 04:19:34;;;;;;;14.93;5.93;;;;;;;;;;4989699;28;20205;-76
2022/09/13 04:22:01;;;;;;;15.00;5.93;;;;;;;;;;4986382;28;20200;-76
2022/09/13 04:24:30;;;;;;;10.30;5.80;;;;;;;;;;4987040;28;20203;-76
2022/09/13 04:26:57;;;;;;;10.77;6.50;;;;;;;;;;4987238;28;20234;-76
2022/09/13 04:29:26;;;;;;;12.47;6.30;;;;;;;;;;4982839;28;20690;-76
2022/09/13 04:31:54;;;;;;;11.37;6.20;;;;;;;;;;4988206;28;20592;-76
2022/09/13 04:34:22;;;;;;;11.27;5.63;;;;;;;;;;4986146;28;20209;-76
2022/09/13 04:36:49;;;;;;;10.13;5.60;;;;;;;;;;4985912;28;20239;-77
2022/09/13 04:39:17;;;;;;;14.20;5.50;;;;;;;;;;4983608;28;20296;-76
2022/09/13 04:41:47;;;;;;;11.47;6.47;;;;;;;;;;4982704;28;20207;-76
2022/09/13 04:44:14;;;;;;;11.97;6.13;;;;;;;;;;4985995;28;20209;-77
2022/09/13 04:46:43;;;;;;;10.57;6.20;;;;;;;;;;4984356;28;20603;-76
2022/09/13 04:49:11;;;;;;;9.67;5.47;;;;;;;;;;4986227;28;20209;-76
2022/09/13 04:51:38;;;;;;;10.73;5.73;;;;;;;;;;4984349;28;20220;-77
2022/09/13 04:54:05;;;;;;;10.87;6.17;;;;;;;;;;4985356;28;21731;-76
2022/09/13 04:56:32;;;;;;;9.30;5.83;;;;;;;;;;4985737;28;20727;-76
2022/09/13 04:59:00;;;;;;;13.20;6.13;;;;;;;;;;4983517;28;20668;-76
2022/09/13 05:01:27;;;;;;;19.83;7.00;;;;;;;;;;4982647;28;20221;-76
2022/09/13 05:03:55;;;;;;;11.53;6.33;;;;;;;;;;4985446;28;20211;-77
2022/09/13 05:06:23;;;;;;;19.67;6.93;;;;;;;;;;4987022;28;20206;-76
2022/09/13 05:08:53;;;;;;;9.60;5.57;;;;;;;;;;4983193;28;20210;-76
2022/09/13 05:11:21;;;;;;;13.10;6.33;;;;;;;;;;4983604;28;20711;-76
2022/09/13 05:13:51;;;;;;;13.53;5.80;;;;;;;;;;4984174;28;20627;-76
2022/09/13 05:16:19;;;;;;;11.83;6.17;;;;;;;;;;4980662;28;20201;-76
2022/09/13 05:18:46;;;;;;;12.33;6.60;;;;;;;;;;4981916;28;20208;-76
2022/09/13 05:21:15;;;;;;;14.27;6.13;;;;;;;;;;4986732;28;20204;-77
2022/09/13 05:23:42;;;;;;;12.20;6.43;;;;;;;;;;4983067;28;20300;-77
2022/09/13 05:26:09;;;;;;;14.77;6.87;;;;;;;;;;4987511;28;20207;-76
2022/09/13 05:28:37;;;;;;;13.63;5.67;;;;;;;;;;4986226;28;20227;-77
2022/09/13 05:31:06;;;;;;;12.40;5.93;;;;;;;;;;4986532;28;20208;-76
2022/09/13 05:33:34;;;;;;;10.83;5.93;;;;;;;;;;4987199;28;20200;-77
2022/09/13 05:36:01;;;;;;;13.57;5.93;;;;;;;;;;4981747;28;20214;-76
2022/09/13 05:38:30;;;;;;;10.60;5.73;;;;;;;;;;4985806;28;20227;-76
2022/09/13 05:40:57;;;;;;;16.33;6.00;;;;;;;;;;4985431;28;20228;-76
2022/09/13 05:43:25;;;;;;;10.13;6.43;;;;;;;;;;4981308;28;20248;-76
2022/09/13 05:45:52;;;;;;;10.93;6.67;;;;;;;;;;4981706;28;20267;-76
2022/09/13 05:48:19;;;;;;;13.77;6.67;;;;;;;;;;4983288;28;20227;-76
2022/09/13 05:50:46;;;;;;;10.27;6.27;;;;;;;;;;4980046;28;20201;-76
2022/09/13 05:53:14;;;;;;;10.83;6.20;;;;;;;;;;4987054;28;20222;-76
2022/09/13 05:55:42;;;;;;;13.67;6.33;;;;;;;;;;4983659;28;20204;-76
2022/09/13 05:58:09;;;;;;;10.50;5.83;;;;;;;;;;4990218;28;20220;-75
2022/09/13 06:00:36;;;;;;;9.93;5.93;;;;;;;;;;4986477;28;20290;-77
2022/09/13 06:03:04;;;;;;;13.53;5.67;;;;;;;;;;4989854;28;20203;-78
2022/09/13 06:05:31;;;;;;;11.23;6.23;;;;;;;;;;4987344;28;20208;-76
2022/09/13 06:07:58;;;;;;;14.37;6.03;;;;;;;;;;4989345;28;20232;-77
2022/09/13 06:10:25;;;;;;;17.37;6.20;;;;;;;;;;4983956;28;20205;-76
2022/09/13 06:12:53;;;;;;;10.60;6.07;;;;;;;;;;4991141;28;20236;-76
2022/09/13 06:15:21;;;;;;;8.20;5.53;;;;;;;;;;4993033;28;20197;-77
2022/09/13 06:17:48;;;;;;;13.37;6.30;;;;;;;;;;4991004;28;20241;-76
2022/09/13 06:20:15;;;;;;;13.87;6.63;;;;;;;;;;4993406;28;20209;-77
2022/09/13 06:22:42;;;;;;;13.63;6.27;;;;;;;;;;4992845;28;20205;-76
2022/09/13 06:25:09;;;;;;;13.43;6.57;;;;;;;;;;4992303;28;20591;-76
2022/09/13 06:27:36;;;;;;;10.17;5.87;;;;;;;;;;4992982;28;20742;-76
2022/09/13 06:30:07;;;;;;;8.90;5.93;;;;;;;;;;4992660;28;20223;-76
2022/09/13 06:32:34;;;;;;;12.27;6.63;;;;;;;;;;4988026;28;20256;-76
2022/09/13 06:35:01;;;;;;;10.50;5.97;;;;;;;;;;4993416;28;20204;-76
2022/09/13 06:37:29;;;;;;;13.10;6.00;;;;;;;;;;4992072;28;20233;-76
2022/09/13 06:39:56;;;;;;;10.40;5.80;;;;;;;;;;4991228;28;20209;-77
2022/09/13 06:42:23;;;;;;;14.97;6.30;;;;;;;;;;4990066;28;20800;-76
2022/09/13 06:44:50;;;;;;;13.03;6.43;;;;;;;;;;4991166;28;20263;-76
2022/09/13 06:47:19;;;;;;;9.53;6.47;;;;;;;;;;4993022;28;20729;-76
2022/09/13 06:49:46;;;;;;;12.73;6.17;;;;;;;;;;4990926;28;20668;-76
2022/09/13 06:52:13;;;;;;;11.40;6.37;;;;;;;;;;4991404;28;20312;-77
2022/09/13 06:54:40;;;;;;;13.83;6.60;;;;;;;;;;4989521;28;20208;-76
2022/09/13 06:57:07;;;;;;;8.77;5.73;;;;;;;;;;4987882;28;20228;-77
2022/09/13 06:59:35;;;;;;;11.33;6.40;;;;;;;;;;4989679;28;20215;-76
2022/09/13 07:02:02;;;;;;;11.10;6.53;;;;;;;;;;4991504;28;20675;-76
2022/09/13 07:04:30;;;;;;;12.67;7.50;;;;;;;;;;4989874;28;20376;-76
2022/09/13 07:06:58;;;;;;;13.87;6.20;;;;;;;;;;4989934;28;20225;-76
2022/09/13 07:09:25;;;;;;;18.67;6.60;;;;;;;;;;4990841;28;20248;-76
2022/09/13 07:11:53;;;;;;;10.43;5.97;;;;;;;;;;4986675;28;20224;-76
2022/09/13 07:14:22;;;;;;;13.93;6.00;;;;;;;;;;4987595;28;20235;-76
2022/09/13 07:16:50;;;;;;;10.60;5.93;;;;;;;;;;4984405;28;20275;-76
2022/09/13 07:19:19;;;;;;;11.80;6.93;;;;;;;;;;4986211;28;20201;-76
2022/09/13 07:21:48;;;;;;;10.83;6.20;;;;;;;;;;4986304;28;20209;-76
2022/09/13 07:24:16;;;;;;;11.90;6.60;;;;;;;;;;4986844;28;20732;-77
2022/09/13 07:26:43;;;;;;;11.53;6.40;;;;;;;;;;4989575;28;20727;-76
2022/09/13 07:29:12;;;;;;;17.43;6.83;;;;;;;;;;4993449;28;20209;-77
2022/09/13 07:31:40;;;;;;;12.77;6.17;;;;;;;;;;4980429;28;20216;-76
2022/09/13 07:34:08;;;;;;;11.47;6.30;;;;;;;;;;4988767;28;20675;-76
2022/09/13 07:36:36;;;;;;;11.20;6.30;;;;;;;;;;4989548;28;20663;-76
2022/09/13 07:39:05;;;;;;;10.13;6.23;;;;;;;;;;4988269;28;20219;-77
2022/09/13 07:41:33;;;;;;;9.00;6.33;;;;;;;;;;4991106;28;20212;-76
2022/09/13 07:44:00;;;;;;;13.60;6.10;;;;;;;;;;4988884;28;20211;-76
2022/09/13 07:46:31;;;;;;;12.87;6.23;;;;;;;;;;4988561;28;20205;-77
2022/09/13 07:48:58;;;;;;;10.20;5.83;;;;;;;;;;4991726;28;20232;-76
2022/09/13 07:51:26;;;;;;;10.23;5.87;;;;;;;;;;4987196;28;20563;-76
2022/09/13 07:53:56;;;;;;;11.20;5.90;;;;;;;;;;4990911;28;20226;-77
2022/09/13 07:56:26;;;;;;;13.83;6.80;;;;;;;;;;4985046;28;20212;-77
2022/09/13 07:58:53;;;;;;;11.50;6.00;;;;;;;;;;4981511;28;20213;-77
2022/09/13 08:01:22;;;;;;;12.83;5.70;;;;;;;;;;4988070;28;20224;-76
2022/09/13 08:03:51;;;;;;;10.73;6.27;;;;;;;;;;4984821;28;20201;-77
2022/09/13 08:06:19;;;;;;;10.67;5.40;;;;;;;;;;4987309;28;20223;-76
2022/09/13 08:08:46;;;;;;;8.30;5.70;;;;;;;;;;4990218;28;20574;-76
2022/09/13 08:11:15;;;;;;;11.90;5.90;;;;;;;;;;4987466;28;20710;-76
2022/09/13 08:13:44;;;;;;;11.03;5.70;;;;;;;;;;4986422;28;20221;-76
2022/09/13 08:16:11;;;;;;;11.03;5.23;;;;;;;;;;4988733;28;20256;-76
2022/09/13 08:18:38;;;;;;;10.43;5.60;;;;;;;;;;4987752;28;20271;-77
2022/09/13 08:21:06;;;;;;;14.60;6.20;;;;;;;;;;4987165;28;20205;-77
2022/09/13 08:23:33;;;;;;;10.10;5.47;;;;;;;;;;4986960;28;20578;-77
2022/09/13 08:26:05;;;;;;;9.20;6.00;;;;;;;;;;4986683;28;20217;-77
2022/09/13 08:28:32;;;;;;;12.43;5.87;;;;;;;;;;4988212;28;20797;-76
2022/09/13 08:31:04;;;;;;;10.87;5.53;;;;;;;;;;4987531;28;20208;-76
2022/09/13 08:33:32;;;;;;;11.23;5.97;;;;;;;;;;4980833;28;20227;-77
2022/09/13 08:35:59;;;;;;;16.87;5.17;;;;;;;;;;4990209;28;20204;-77
2022/09/13 08:38:26;;;;;;;8.97;5.13;;;;;;;;;;4986867;28;20220;-77
2022/09/13 08:40:57;;;;;;;14.37;5.83;;;;;;;;;;4989129;28;20299;-76
2022/09/13 08:43:29;;;;;;;12.97;5.50;;;;;;;;;;4989313;28;20197;-77
2022/09/13 08:46:00;;;;;;;11.37;5.60;;;;;;;;;;4988218;28;20218;-77
2022/09/13 08:48:33;;;;;;;11.00;5.57;;;;;;;;;;4988502;28;20223;-76
2022/09/13 08:51:02;;;;;;;8.63;4.90;;;;;;;;;;4989485;28;20211;-76
2022/09/13 08:53:30;;;;;;;11.33;5.40;;;;;;;;;;4988937;28;20229;-76
2022/09/13 08:56:02;;;;;;;13.70;5.57;;;;;;;;;;4983185;28;20566;-76
2022/09/13 08:58:48;;;;;;;8.20;4.83;;;;;;;;;;4989387;28;20642;-76
2022/09/13 09:01:21;;;;;;;8.43;4.93;;;;;;;;;;4986418;28;20427;-76
2022/09/13 09:03:56;;;;;;;6.80;4.57;;;;;;;;;;4988819;28;20194;-76
2022/09/13 09:06:24;;;;;;;9.63;4.50;;;;;;;;;;4984628;28;20204;-76
2022/09/13 09:08:53;;;;;;;7.23;4.23;;;;;;;;;;4985931;28;20580;-76
2022/09/13 09:11:25;;;;;;;6.03;3.93;;;;;;;;;;4984050;28;20701;-76
2022/09/13 09:13:53;;;;;;;7.60;4.07;;;;;;;;;;4980980;28;20228;-76
2022/09/13 09:16:28;;;;;;;6.03;4.10;;;;;;;;;;4982091;28;20233;-76
2022/09/13 09:18:58;;;;;;;6.37;3.90;;;;;;;;;;4981771;28;20558;-75
2022/09/13 09:21:26;;;;;;;9.90;4.17;;;;;;;;;;4988721;28;20197;-75
2022/09/13 09:24:05;;;;;;;9.43;4.20;;;;;;;;;;4981894;28;20208;-75
2022/09/13 09:26:33;;;;;;;8.27;4.23;;;;;;;;;;4982750;28;20205;-74
2022/09/13 09:29:01;;;;;;;7.13;3.40;;;;;;;;;;4981050;28;20227;-75
2022/09/13 09:31:33;;;;;;;5.43;3.50;;;;;;;;;;4984264;28;20209;-74
2022/09/13 09:34:10;;;;;;;8.33;3.67;;;;;;;;;;4981937;28;20214;-75
2022/09/13 09:36:41;;;;;;;10.47;4.00;;;;;;;;;;4989476;28;20290;-75
2022/09/13 09:39:11;;;;;;;6.47;4.00;;;;;;;;;;4981754;28;20209;-75
2022/09/13 09:41:38;;;;;;;12.10;5.90;;;;;;;;;;4984535;28;20205;-75
2022/09/13 09:44:10;;;;;;;7.53;4.63;;;;;;;;;;4984043;28;20779;-74
2022/09/13 09:46:39;;;;;;;7.40;3.77;;;;;;;;;;4983521;28;20259;-75
2022/09/13 09:52:11;;;;;;;4.07;2.60;;;;;;;;;;4990501;28;20573;-75
2022/09/13 09:54:40;;;;;;;4.70;2.50;;;;;;;;;;4987598;28;20603;-75
2022/09/13 09:57:07;;;;;;;8.23;2.60;;;;;;;;;;4984202;28;20224;-75
2022/09/13 09:59:36;;;;;;;5.30;2.43;;;;;;;;;;4984276;28;20205;-75
2022/09/13 10:02:13;;;;;;;3.93;2.60;;;;;;;;;;4987276;28;20607;-75
2022/09/13 10:04:41;;;;;;;4.93;2.63;;;;;;;;;;4983131;28;20201;-75
2022/09/13 10:07:10;;;;;;;5.17;2.73;;;;;;;;;;4988752;28;20239;-75
2022/09/13 10:09:38;;;;;;;3.13;2.53;;;;;;;;;;4990826;28;20584;-74
2022/09/13 10:12:05;;;;;;;4.47;2.63;;;;;;;;;;4986479;28;20734;-75
2022/09/13 10:14:38;;;;;;;11.33;2.30;;;;;;;;;;4978679;28;20232;-75
2022/09/13 10:17:16;;;;;;;3.60;2.10;;;;;;;;;;4986241;28;20229;-75
2022/09/13 10:19:53;;;;;;;2.97;1.93;;;;;;;;;;4988603;28;20240;-75
2022/09/13 10:22:21;;;;;;;3.10;2.13;;;;;;;;;;4990071;28;20197;-75
2022/09/13 10:24:49;;;;;;;4.50;2.13;;;;;;;;;;4992804;28;20235;-75
2022/09/13 10:27:21;;;;;;;3.73;2.13;;;;;;;;;;4994152;28;20593;-75
2022/09/13 10:29:48;;;;;;;7.07;1.97;;;;;;;;;;4987504;28;20282;-75
2022/09/13 10:32:18;;;;;;;3.80;1.90;;;;;;;;;;4987858;28;20668;-74
2022/09/13 10:34:46;;;;;;;3.13;2.03;;;;;;;;;;4984249;28;20782;-75
2022/09/13 10:37:18;;;;;;;8.10;1.93;;;;;;;;;;4992088;28;20225;-74
2022/09/13 10:39:53;;;;;;;2.87;1.50;;;;;;;;;;4992062;28;20218;-74
2022/09/13 10:42:22;;;;;;;2.83;1.50;;;;;;;;;;4991097;28;20794;-74
2022/09/13 10:44:54;;;;;;;3.43;1.67;;;;;;;;;;4996230;28;20204;-75
2022/09/13 10:47:23;;;;;;;2.87;1.60;;;;;;;;;;4986303;28;20221;-75
2022/09/13 10:49:52;;;;;;;2.97;1.60;;;;;;;;;;4986868;28;20209;-74
2022/09/13 10:52:37;;;;;;;4.83;1.60;;;;;;;;;;4983445;28;20216;-75
2022/09/13 10:55:23;;;;;;;2.20;1.53;;;;;;;;;;4988013;28;20303;-75
2022/09/13 10:57:52;;;;;;;2.43;1.60;;;;;;;;;;4989040;28;20226;-74
2022/09/13 11:00:20;;;;;;;3.73;1.50;;;;;;;;;;4985435;28;20314;-74
2022/09/13 11:02:53;;;;;;;2.17;1.30;;;;;;;;;;4992267;28;20775;-75
2022/09/13 11:05:23;;;;;;;2.50;1.27;;;;;;;;;;4986588;28;20323;-75
2022/09/13 11:08:10;;;;;;;3.33;1.40;;;;;;;;;;4985817;28;20717;-75
2022/09/13 11:10:40;;;;;;;2.30;1.20;;;;;;;;;;4980943;28;20201;-75
2022/09/13 11:13:15;;;;;;;3.93;1.20;;;;;;;;;;4985216;28;20232;-74
2022/09/13 11:15:46;;;;;;;11.97;1.10;;;;;;;;;;4983995;28;20722;-75
2022/09/13 11:18:31;;;;;;;1.80;1.20;;;;;;;;;;4987976;28;20242;-75
2022/09/13 11:21:02;;;;;;;4.20;1.20;;;;;;;;;;4984905;28;20227;-75
2022/09/13 11:23:53;;;;;;;4.03;1.10;;;;;;;;;;4980303;28;20624;-75
2022/09/13 11:26:29;;;;;;;3.47;1.00;;;;;;;;;;4981850;28;20293;-75
2022/09/13 11:29:06;;;;;;;3.10;1.10;;;;;;;;;;4983022;28;20674;-75
2022/09/13 11:31:39;;;;;;;3.03;1.10;;;;;;;;;;4974910;28;20215;-75
2022/09/13 11:34:13;;;;;;;2.50;1.00;;;;;;;;;;4978885;28;20231;-74
2022/09/13 11:36:45;;;;;;;4.13;1.13;;;;;;;;;;4978868;28;20337;-75
2022/09/13 11:39:16;;;;;;;1.43;1.00;;;;;;;;;;4987779;28;20212;-75
2022/09/13 11:41:47;;;;;;;1.83;0.90;;;;;;;;;;4988881;28;20213;-75
2022/09/13 11:44:25;;;;;;;2.00;1.10;;;;;;;;;;4980668;28;20207;-75
2022/09/13 11:46:54;;;;;;;2.10;1.10;;;;;;;;;;4982016;28;20221;-75
2022/09/13 11:49:27;;;;;;;2.77;0.83;;;;;;;;;;4988046;28;20239;-75
2022/09/13 11:51:58;;;;;;;3.83;1.13;;;;;;;;;;4984082;28;20820;-75
2022/09/13 11:54:46;;;;;;;2.60;1.00;;;;;;;;;;4988311;28;20209;-75
2022/09/13 11:57:16;;;;;;;2.40;1.00;;;;;;;;;;4985610;28;20226;-75
2022/09/13 11:59:47;;;;;;;1.57;1.00;;;;;;;;;;4986467;28;20207;-75
2022/09/13 12:02:18;;;;;;;1.63;0.83;;;;;;;;;;4987062;28;20217;-75
2022/09/13 12:04:49;;;;;;;3.33;1.10;;;;;;;;;;4985297;28;20207;-75
2022/09/13 12:07:19;;;;;;;1.63;0.80;;;;;;;;;;4991245;28;20232;-75
2022/09/13 12:09:52;;;;;;;3.53;0.80;;;;;;;;;;4985346;28;20201;-75
2022/09/13 12:12:24;;;;;;;2.43;0.80;;;;;;;;;;4987632;28;20202;-74
2022/09/13 12:14:57;;;;;;;2.33;1.27;;;;;;;;;;4989907;28;20228;-75
2022/09/13 12:17:25;;;;;;;2.23;0.90;;;;;;;;;;4987134;28;20786;-74
2022/09/13 12:19:54;;;;;;;1.73;0.80;;;;;;;;;;4989154;28;20660;-75
2022/09/13 12:22:25;;;;;;;1.23;0.87;;;;;;;;;;4986451;28;20668;-75
2022/09/13 12:24:54;;;;;;;2.33;0.80;;;;;;;;;;4988331;28;20204;-75
2022/09/13 12:27:24;;;;;;;1.60;0.90;;;;;;;;;;4989535;28;20220;-76
2022/09/13 12:29:55;;;;;;;1.80;0.93;;;;;;;;;;4984101;28;20225;-75
2022/09/13 12:32:23;;;;;;;9.27;1.00;;;;;;;;;;4981635;28;20201;-75
2022/09/13 12:34:53;;;;;;;1.67;0.97;;;;;;;;;;4983827;28;20685;-76
2022/09/13 12:37:36;;;;;;;3.70;1.03;;;;;;;;;;4985530;28;20226;-77
2022/09/13 12:40:10;;;;;;;1.37;0.70;;;;;;;;;;4985554;28;20214;-77
2022/09/13 12:42:45;;;;;;;2.90;0.93;;;;;;;;;;4985529;28;20232;-77
2022/09/13 12:45:28;;;;;;;2.30;1.00;;;;;;;;;;4984979;28;20203;-77
2022/09/13 12:48:13;;;;;;;1.40;0.80;;;;;;;;;;4985986;28;20257;-76
2022/09/13 12:50:55;;;;;;;2.00;0.90;;;;;;;;;;4984700;28;20209;-74
2022/09/13 12:53:38;;;;;;;3.20;1.07;;;;;;;;;;4967533;28;20207;-77
2022/09/13 12:56:12;;;;;;;2.70;1.10;;;;;;;;;;4986815;28;20211;-74
2022/09/13 12:58:52;;;;;;;2.90;1.20;;;;;;;;;;4982966;28;20226;-75
2022/09/13 13:01:22;;;;;;;1.43;0.90;;;;;;;;;;4983844;28;20211;-75
2022/09/13 13:03:52;;;;;;;1.40;1.10;;;;;;;;;;4988843;28;20319;-77
2022/09/13 13:06:24;;;;;;;1.73;1.13;;;;;;;;;;4983057;28;20216;-74
2022/09/13 13:08:53;;;;;;;2.03;0.90;;;;;;;;;;4989115;28;20201;-74
2022/09/13 13:11:23;;;;;;;1.70;1.10;;;;;;;;;;4983067;28;20201;-78
2022/09/13 13:13:55;;;;;;;4.80;1.20;;;;;;;;;;4987138;28;20228;-76
2022/09/13 13:16:26;;;;;;;1.67;0.90;;;;;;;;;;4986700;28;20239;-75
2022/09/13 13:18:54;;;;;;;1.17;0.90;;;;;;;;;;4988327;28;20204;-76
2022/09/13 13:21:26;;;;;;;6.03;1.10;;;;;;;;;;4979333;28;20674;-76
2022/09/13 13:24:12;;;;;;;1.77;0.90;;;;;;;;;;4975737;28;20256;-75
2022/09/13 13:26:45;;;;;;;1.80;0.90;;;;;;;;;;4982348;28;20228;-76
2022/09/13 13:29:15;;;;;;;4.83;1.13;;;;;;;;;;4981660;28;20283;-75
2022/09/13 13:32:06;;;;;;;1.53;0.90;;;;;;;;;;4981146;28;20199;-75
2022/09/13 13:34:38;;;;;;;1.70;0.83;;;;;;;;;;4984170;28;20565;-75
2022/09/13 13:37:06;;;;;;;1.13;0.93;;;;;;;;;;4983111;28;20228;-76
2022/09/13 13:39:35;;;;;;;1.20;0.90;;;;;;;;;;4979789;28;20213;-75
2022/09/13 13:42:02;;;;;;;5.53;1.00;;;;;;;;;;4978863;28;20205;-75
2022/09/13 13:45:03;;;;;;;3.33;0.90;;;;;;;;;;4985250;28;20205;-75
2022/09/13 13:48:04;;;;;;;0.93;0.77;;;;;;;;;;4924270;29;20310;-75
2022/09/13 13:50:32;;;;;;;1.90;1.00;;;;;;;;;;4921165;29;20209;-75
2022/09/13 13:53:05;;;;;;;1.77;1.00;;;;;;;;;;4960839;28;20337;-76
2022/09/13 13:55:39;;;;;;;2.67;0.97;;;;;;;;;;4981666;28;20730;-75
2022/09/13 13:58:13;;;;;;;4.60;0.90;;;;;;;;;;4982910;28;20234;-76
2022/09/13 14:00:47;;;;;;;0.83;0.70;;;;;;;;;;4982899;28;20211;-75
2022/09/13 14:03:18;;;;;;;0.97;0.80;;;;;;;;;;4987777;28;20199;-75
2022/09/13 14:05:49;;;;;;;2.60;0.70;;;;;;;;;;4984139;28;20272;-76
2022/09/13 14:08:26;;;;;;;0.97;0.70;;;;;;;;;;4982655;28;20434;-76
2022/09/13 14:10:57;;;;;;;2.97;0.83;;;;;;;;;;4983205;28;20208;-75
2022/09/13 14:13:34;;;;;;;2.67;0.70;;;;;;;;;;4987541;28;20240;-75
2022/09/13 14:16:04;;;;;;;3.10;0.70;;;;;;;;;;4985762;28;20230;-74
2022/09/13 14:18:42;;;;;;;0.77;0.60;;;;;;;;;;4988451;28;20631;-75
2022/09/13 14:21:20;;;;;;;4.10;0.70;;;;;;;;;;4987311;28;20201;-75
2022/09/13 14:23:47;;;;;;;2.47;1.00;;;;;;;;;;4985858;28;20706;-75
2022/09/13 14:26:14;;;;;;;4.60;0.77;;;;;;;;;;4987673;28;20206;-76
2022/09/13 14:28:42;;;;;;;1.30;0.80;;;;;;;;;;4983946;28;20771;-75
2022/09/13 14:31:19;;;;;;;1.37;0.77;;;;;;;;;;4989968;28;20218;-75
2022/09/13 14:33:46;;;;;;;1.07;0.63;;;;;;;;;;4986485;28;20209;-75
2022/09/13 14:36:18;;;;;;;2.23;0.90;;;;;;;;;;4988534;28;20234;-75
2022/09/13 14:38:49;;;;;;;2.77;0.80;;;;;;;;;;4988547;28;20201;-76
2022/09/13 14:41:21;;;;;;;3.67;1.03;;;;;;;;;;4986652;28;20216;-76
2022/09/13 14:43:49;;;;;;;1.37;1.00;;;;;;;;;;4986520;28;20712;-76
2022/09/13 14:46:18;;;;;;;3.63;0.80;;;;;;;;;;4985539;28;20232;-75
2022/09/13 14:48:50;;;;;;;1.77;1.13;;;;;;;;;;4982694;28;20240;-75
2022/09/13 14:51:19;;;;;;;3.43;0.73;;;;;;;;;;4987840;28;20201;-75
2022/09/13 14:53:49;;;;;;;1.53;0.77;;;;;;;;;;4987243;28;20237;-76
2022/09/13 14:56:19;;;;;;;1.63;0.93;;;;;;;;;;4983741;28;20221;-76
2022/09/13 14:58:48;;;;;;;2.17;0.90;;;;;;;;;;4987494;28;20198;-76
2022/09/13 15:01:18;;;;;;;1.33;0.80;;;;;;;;;;4988868;28;20303;-76
2022/09/13 15:03:47;;;;;;;3.07;1.10;;;;;;;;;;4991058;28;20203;-76
2022/09/13 15:06:21;;;;;;;6.90;1.23;;;;;;;;;;4985971;28;20253;-75
2022/09/13 15:08:49;;;;;;;1.97;1.00;;;;;;;;;;4986566;28;20267;-76